sensor_id;sensor_type;location;lat;lon;timestamp;temperature;humidity
22185;DHT22;11258;52.516;13.318;2023-05-07T00:01:02;9.30;99.90
22185;DHT22;11258;52.516;13.318;2023-05-07T00:03:28;9.20;99.90
22185;DHT22;11258;52.516;13.318;2023-05-07T00:05:54;9.30;99.90
22185;DHT22;11258;52.516;13.318;2023-05-07T00:08:19;9.30;99.90
22185;DHT22;11258;52.516;13.318;2023-05-07T00:10:46;9.30;99.90
22185;DHT22;11258;52.516;13.318;2023-05-07T00:13:11;9.30;99.90
22185;DHT22;11258;52.516;13.318;2023-05-07T00:15:37;9.30;99.90
22185;DHT22;11258;52.516;13.318;2023-05-07T00:18:03;9.30;99.90
22185;DHT22;11258;52.516;13.318;2023-05-07T00:20:29;9.40;99.90
22185;DHT22;11258;52.516;13.318;2023-05-07T00:22:54;9.30;99.90
22185;DHT22;11258;52.516;13.318;2023-05-07T00:25:20;9.40;99.90
22185;DHT22;11258;52.516;13.318;2023-05-07T00:27:46;9.30;99.90
22185;DHT22;11258;52.516;13.318;2023-05-07T00:30:12;9.30;99.90
22185;DHT22;11258;52.516;13.318;2023-05-07T00:32:38;9.30;99.90
22185;DHT22;11258;52.516;13.318;2023-05-07T00:35:05;9.40;99.90
22185;DHT22;11258;52.516;13.318;2023-05-07T00:37:30;9.30;99.90
22185;DHT22;11258;52.516;13.318;2023-05-07T00:39:56;9.30;99.90
22185;DHT22;11258;52.516;13.318;2023-05-07T00:42:22;9.30;99.90
22185;DHT22;11258;52.516;13.318;2023-05-07T00:44:48;9.30;99.90
22185;DHT22;11258;52.516;13.318;2023-05-07T00:47:14;9.30;99.90
22185;DHT22;11258;52.516;13.318;2023-05-07T00:49:44;9.40;99.90
22185;DHT22;11258;52.516;13.318;2023-05-07T00:52:13;9.30;99.90
22185;DHT22;11258;52.516;13.318;2023-05-07T00:54:41;9.30;99.90
22185;DHT22;11258;52.516;13.318;2023-05-07T00:57:06;9.30;99.90
22185;DHT22;11258;52.516;13.318;2023-05-07T00:59:34;9.30;99.90
22185;DHT22;11258;52.516;13.318;2023-05-07T01:02:00;9.30;99.90
22185;DHT22;11258;52.516;13.318;2023-05-07T01:04:26;9.30;99.90
22185;DHT22;11258;52.516;13.318;2023-05-07T01:06:54;9.20;99.90
22185;DHT22;11258;52.516;13.318;2023-05-07T01:09:22;9.30;99.90
22185;DHT22;11258;52.516;13.318;2023-05-07T01:11:49;9.20;99.90
22185;DHT22;11258;52.516;13.318;2023-05-07T01:14:16;9.20;99.90
22185;DHT22;11258;52.516;13.318;2023-05-07T01:16:42;9.30;99.90
22185;DHT22;11258;52.516;13.318;2023-05-07T01:19:08;9.30;99.90
22185;DHT22;11258;52.516;13.318;2023-05-07T01:21:37;9.30;99.90
22185;DHT22;11258;52.516;13.318;2023-05-07T01:24:04;9.30;99.90
22185;DHT22;11258;52.516;13.318;2023-05-07T01:26:30;9.20;99.90
22185;DHT22;11258;52.516;13.318;2023-05-07T01:28:56;9.30;99.90
22185;DHT22;11258;52.516;13.318;2023-05-07T01:31:24;9.20;99.90
22185;DHT22;11258;52.516;13.318;2023-05-07T01:33:50;9.20;99.90
22185;DHT22;11258;52.516;13.318;2023-05-07T01:36:18;9.20;99.90
22185;DHT22;11258;52.516;13.318;2023-05-07T01:38:44;9.20;99.90
22185;DHT22;11258;52.516;13.318;2023-05-07T01:41:12;9.20;99.90
22185;DHT22;11258;52.516;13.318;2023-05-07T01:43:40;9.20;99.90
22185;DHT22;11258;52.516;13.318;2023-05-07T01:46:07;9.20;99.90
22185;DHT22;11258;52.516;13.318;2023-05-07T01:48:35;9.20;99.90
22185;DHT22;11258;52.516;13.318;2023-05-07T01:51:01;9.20;99.90
22185;DHT22;11258;52.516;13.318;2023-05-07T01:53:28;9.20;99.90
22185;DHT22;11258;52.516;13.318;2023-05-07T01:55:53;9.20;99.90
22185;DHT22;11258;52.516;13.318;2023-05-07T01:58:19;9.20;99.90
22185;DHT22;11258;52.516;13.318;2023-05-07T02:00:45;9.30;99.90
22185;DHT22;11258;52.516;13.318;2023-05-07T02:03:10;9.20;99.90
22185;DHT22;11258;52.516;13.318;2023-05-07T02:05:36;9.20;99.90
22185;DHT22;11258;52.516;13.318;2023-05-07T02:08:02;9.20;99.90
22185;DHT22;11258;52.516;13.318;2023-05-07T02:10:27;9.20;99.90
22185;DHT22;11258;52.516;13.318;2023-05-07T02:12:53;9.30;99.90
22185;DHT22;11258;52.516;13.318;2023-05-07T02:15:19;9.20;99.90
22185;DHT22;11258;52.516;13.318;2023-05-07T02:18:05;9.10;99.90
22185;DHT22;11258;52.516;13.318;2023-05-07T02:20:32;9.10;99.90
22185;DHT22;11258;52.516;13.318;2023-05-07T02:22:57;9.10;99.90
22185;DHT22;11258;52.516;13.318;2023-05-07T02:25:23;9.10;99.90
22185;DHT22;11258;52.516;13.318;2023-05-07T02:27:49;9.10;99.90
22185;DHT22;11258;52.516;13.318;2023-05-07T02:30:15;9.00;99.90
22185;DHT22;11258;52.516;13.318;2023-05-07T02:32:40;9.00;99.90
22185;DHT22;11258;52.516;13.318;2023-05-07T02:35:06;9.10;99.90
22185;DHT22;11258;52.516;13.318;2023-05-07T02:37:32;9.10;99.90
22185;DHT22;11258;52.516;13.318;2023-05-07T02:39:58;9.10;99.90
22185;DHT22;11258;52.516;13.318;2023-05-07T02:42:23;9.10;99.90
22185;DHT22;11258;52.516;13.318;2023-05-07T02:44:49;9.20;99.90
22185;DHT22;11258;52.516;13.318;2023-05-07T02:47:15;9.10;99.90
22185;DHT22;11258;52.516;13.318;2023-05-07T02:49:41;9.20;99.90
22185;DHT22;11258;52.516;13.318;2023-05-07T02:52:07;9.20;99.90
22185;DHT22;11258;52.516;13.318;2023-05-07T02:54:33;9.20;99.90
22185;DHT22;11258;52.516;13.318;2023-05-07T02:56:58;9.20;99.90
22185;DHT22;11258;52.516;13.318;2023-05-07T02:59:26;9.20;99.90
22185;DHT22;11258;52.516;13.318;2023-05-07T03:01:51;9.20;99.90
22185;DHT22;11258;52.516;13.318;2023-05-07T03:04:17;9.20;99.90
22185;DHT22;11258;52.516;13.318;2023-05-07T03:06:43;9.10;99.90
22185;DHT22;11258;52.516;13.318;2023-05-07T03:09:08;9.20;99.90
22185;DHT22;11258;52.516;13.318;2023-05-07T03:11:34;9.20;99.90
22185;DHT22;11258;52.516;13.318;2023-05-07T03:14:01;9.20;99.90
22185;DHT22;11258;52.516;13.318;2023-05-07T03:16:27;9.20;99.90
22185;DHT22;11258;52.516;13.318;2023-05-07T03:18:52;9.20;99.90
22185;DHT22;11258;52.516;13.318;2023-05-07T03:21:18;9.20;99.90
22185;DHT22;11258;52.516;13.318;2023-05-07T03:23:44;9.20;99.90
22185;DHT22;11258;52.516;13.318;2023-05-07T03:26:09;9.20;99.90
22185;DHT22;11258;52.516;13.318;2023-05-07T03:28:35;9.20;99.90
22185;DHT22;11258;52.516;13.318;2023-05-07T03:31:01;9.10;99.90
22185;DHT22;11258;52.516;13.318;2023-05-07T03:33:26;9.20;99.90
22185;DHT22;11258;52.516;13.318;2023-05-07T03:35:53;9.20;99.90
22185;DHT22;11258;52.516;13.318;2023-05-07T03:38:18;9.10;99.90
22185;DHT22;11258;52.516;13.318;2023-05-07T03:40:44;9.10;99.90
22185;DHT22;11258;52.516;13.318;2023-05-07T03:43:10;9.10;99.90
22185;DHT22;11258;52.516;13.318;2023-05-07T03:45:35;9.20;99.90
22185;DHT22;11258;52.516;13.318;2023-05-07T03:48:01;9.10;99.90
22185;DHT22;11258;52.516;13.318;2023-05-07T03:50:27;9.20;99.90
22185;DHT22;11258;52.516;13.318;2023-05-07T03:52:52;9.20;99.90
22185;DHT22;11258;52.516;13.318;2023-05-07T03:55:18;9.10;99.90
22185;DHT22;11258;52.516;13.318;2023-05-07T05:23:01;9.40;99.90
22185;DHT22;11258;52.516;13.318;2023-05-07T05:25:27;9.40;99.90
22185;DHT22;11258;52.516;13.318;2023-05-07T05:27:53;9.50;99.90
22185;DHT22;11258;52.516;13.318;2023-05-07T05:30:19;9.50;99.90
22185;DHT22;11258;52.516;13.318;2023-05-07T05:32:45;9.50;99.90
22185;DHT22;11258;52.516;13.318;2023-05-07T05:35:10;9.50;99.90
22185;DHT22;11258;52.516;13.318;2023-05-07T05:37:36;9.60;99.90
22185;DHT22;11258;52.516;13.318;2023-05-07T05:40:02;9.50;99.90
22185;DHT22;11258;52.516;13.318;2023-05-07T05:42:27;9.50;99.90
22185;DHT22;11258;52.516;13.318;2023-05-07T05:44:53;9.60;99.90
22185;DHT22;11258;52.516;13.318;2023-05-07T05:47:19;9.70;99.90
22185;DHT22;11258;52.516;13.318;2023-05-07T05:49:44;9.80;99.90
22185;DHT22;11258;52.516;13.318;2023-05-07T05:52:12;9.80;99.90
22185;DHT22;11258;52.516;13.318;2023-05-07T05:54:38;9.90;99.90
22185;DHT22;11258;52.516;13.318;2023-05-07T05:57:04;10.60;99.90
22185;DHT22;11258;52.516;13.318;2023-05-07T05:59:30;10.50;99.90
22185;DHT22;11258;52.516;13.318;2023-05-07T06:01:56;10.20;99.90
22185;DHT22;11258;52.516;13.318;2023-05-07T06:04:21;10.40;99.90
22185;DHT22;11258;52.516;13.318;2023-05-07T06:06:47;10.50;99.90
22185;DHT22;11258;52.516;13.318;2023-05-07T06:09:12;10.70;99.90
22185;DHT22;11258;52.516;13.318;2023-05-07T06:11:38;10.80;99.90
22185;DHT22;11258;52.516;13.318;2023-05-07T06:14:05;11.20;99.90
22185;DHT22;11258;52.516;13.318;2023-05-07T06:16:30;11.70;99.90
22185;DHT22;11258;52.516;13.318;2023-05-07T06:18:56;12.00;99.90
22185;DHT22;11258;52.516;13.318;2023-05-07T06:21:21;12.00;99.90
22185;DHT22;11258;52.516;13.318;2023-05-07T06:23:47;12.50;99.90
22185;DHT22;11258;52.516;13.318;2023-05-07T06:26:12;12.70;99.90
22185;DHT22;11258;52.516;13.318;2023-05-07T06:28:38;12.20;99.90
22185;DHT22;11258;52.516;13.318;2023-05-07T06:31:14;12.60;99.90
22185;DHT22;11258;52.516;13.318;2023-05-07T06:33:40;11.90;99.90
22185;DHT22;11258;52.516;13.318;2023-05-07T06:36:06;11.50;99.90
22185;DHT22;11258;52.516;13.318;2023-05-07T06:38:31;11.10;99.90
22185;DHT22;11258;52.516;13.318;2023-05-07T06:40:57;11.20;99.90
22185;DHT22;11258;52.516;13.318;2023-05-07T06:43:22;11.20;99.90
22185;DHT22;11258;52.516;13.318;2023-05-07T06:45:48;11.00;99.90
22185;DHT22;11258;52.516;13.318;2023-05-07T06:48:14;10.90;99.90
22185;DHT22;11258;52.516;13.318;2023-05-07T06:50:41;10.80;99.90
22185;DHT22;11258;52.516;13.318;2023-05-07T06:53:07;10.80;99.90
22185;DHT22;11258;52.516;13.318;2023-05-07T06:55:32;11.00;99.90
22185;DHT22;11258;52.516;13.318;2023-05-07T06:57:58;11.10;99.90
22185;DHT22;11258;52.516;13.318;2023-05-07T07:00:26;11.10;99.90
22185;DHT22;11258;52.516;13.318;2023-05-07T07:02:53;11.00;99.90
22185;DHT22;11258;52.516;13.318;2023-05-07T07:05:18;10.90;99.90
22185;DHT22;11258;52.516;13.318;2023-05-07T07:07:44;10.80;99.90
22185;DHT22;11258;52.516;13.318;2023-05-07T07:10:10;10.80;99.90
22185;DHT22;11258;52.516;13.318;2023-05-07T07:12:35;11.10;99.90
22185;DHT22;11258;52.516;13.318;2023-05-07T07:15:01;11.00;99.90
22185;DHT22;11258;52.516;13.318;2023-05-07T07:17:27;11.00;99.90
22185;DHT22;11258;52.516;13.318;2023-05-07T07:19:53;12.00;99.90
22185;DHT22;11258;52.516;13.318;2023-05-07T07:22:19;13.30;99.90
22185;DHT22;11258;52.516;13.318;2023-05-07T07:24:45;14.60;99.90
22185;DHT22;11258;52.516;13.318;2023-05-07T07:27:10;15.40;99.90
22185;DHT22;11258;52.516;13.318;2023-05-07T07:29:36;15.50;99.90
22185;DHT22;11258;52.516;13.318;2023-05-07T07:32:02;16.40;99.90
22185;DHT22;11258;52.516;13.318;2023-05-07T07:34:27;17.10;99.90
22185;DHT22;11258;52.516;13.318;2023-05-07T07:36:53;16.00;99.90
22185;DHT22;11258;52.516;13.318;2023-05-07T07:39:18;16.00;99.90
22185;DHT22;11258;52.516;13.318;2023-05-07T07:41:44;16.70;99.90
22185;DHT22;11258;52.516;13.318;2023-05-07T07:44:10;16.80;99.90
22185;DHT22;11258;52.516;13.318;2023-05-07T07:46:38;17.10;99.90
22185;DHT22;11258;52.516;13.318;2023-05-07T07:49:04;16.10;99.90
22185;DHT22;11258;52.516;13.318;2023-05-07T07:51:29;14.80;99.90
22185;DHT22;11258;52.516;13.318;2023-05-07T07:53:55;15.10;99.90
22185;DHT22;11258;52.516;13.318;2023-05-07T07:56:23;16.00;99.90
22185;DHT22;11258;52.516;13.318;2023-05-07T07:58:49;17.00;99.90
22185;DHT22;11258;52.516;13.318;2023-05-07T08:01:14;17.70;99.90
22185;DHT22;11258;52.516;13.318;2023-05-07T08:03:41;17.20;99.90
22185;DHT22;11258;52.516;13.318;2023-05-07T08:06:07;17.10;99.90
22185;DHT22;11258;52.516;13.318;2023-05-07T08:08:33;18.00;99.90
22185;DHT22;11258;52.516;13.318;2023-05-07T08:10:58;18.60;99.90
22185;DHT22;11258;52.516;13.318;2023-05-07T08:13:24;18.70;99.90
22185;DHT22;11258;52.516;13.318;2023-05-07T08:15:49;19.00;99.90
22185;DHT22;11258;52.516;13.318;2023-05-07T08:18:15;19.50;99.90
22185;DHT22;11258;52.516;13.318;2023-05-07T08:20:41;19.80;99.90
22185;DHT22;11258;52.516;13.318;2023-05-07T08:23:07;18.60;99.90
22185;DHT22;11258;52.516;13.318;2023-05-07T08:25:34;17.20;99.90
22185;DHT22;11258;52.516;13.318;2023-05-07T08:28:00;16.30;99.90
22185;DHT22;11258;52.516;13.318;2023-05-07T08:42:36;15.80;99.90
22185;DHT22;11258;52.516;13.318;2023-05-07T08:45:04;15.80;99.90
22185;DHT22;11258;52.516;13.318;2023-05-07T08:47:44;15.20;99.90
22185;DHT22;11258;52.516;13.318;2023-05-07T08:50:12;15.20;99.90
22185;DHT22;11258;52.516;13.318;2023-05-07T08:52:39;15.00;99.90
22185;DHT22;11258;52.516;13.318;2023-05-07T08:55:07;15.20;99.90
22185;DHT22;11258;52.516;13.318;2023-05-07T08:57:33;15.10;99.90
22185;DHT22;11258;52.516;13.318;2023-05-07T08:59:58;15.50;99.90
22185;DHT22;11258;52.516;13.318;2023-05-07T09:02:24;15.70;99.90
22185;DHT22;11258;52.516;13.318;2023-05-07T09:04:50;15.80;99.90
22185;DHT22;11258;52.516;13.318;2023-05-07T09:07:16;15.70;99.90
22185;DHT22;11258;52.516;13.318;2023-05-07T09:09:44;15.40;99.90
22185;DHT22;11258;52.516;13.318;2023-05-07T09:12:09;15.60;99.90
22185;DHT22;11258;52.516;13.318;2023-05-07T09:14:35;15.50;99.90
22185;DHT22;11258;52.516;13.318;2023-05-07T09:17:01;15.50;99.90
22185;DHT22;11258;52.516;13.318;2023-05-07T09:19:27;15.20;99.90
22185;DHT22;11258;52.516;13.318;2023-05-07T09:22:00;14.90;99.90
22185;DHT22;11258;52.516;13.318;2023-05-07T09:24:26;15.00;99.90
22185;DHT22;11258;52.516;13.318;2023-05-07T09:26:54;14.60;99.90
22185;DHT22;11258;52.516;13.318;2023-05-07T09:29:20;14.90;99.90
22185;DHT22;11258;52.516;13.318;2023-05-07T09:31:46;15.10;99.90
22185;DHT22;11258;52.516;13.318;2023-05-07T09:34:12;15.00;99.90
22185;DHT22;11258;52.516;13.318;2023-05-07T09:36:37;14.40;99.90
22185;DHT22;11258;52.516;13.318;2023-05-07T09:39:03;14.70;99.90
22185;DHT22;11258;52.516;13.318;2023-05-07T09:41:30;14.80;99.90
22185;DHT22;11258;52.516;13.318;2023-05-07T09:43:58;15.00;99.90
22185;DHT22;11258;52.516;13.318;2023-05-07T09:46:28;14.90;99.90
22185;DHT22;11258;52.516;13.318;2023-05-07T09:48:57;14.70;99.90
22185;DHT22;11258;52.516;13.318;2023-05-07T09:51:33;14.50;99.90
22185;DHT22;11258;52.516;13.318;2023-05-07T09:54:01;14.40;99.90
22185;DHT22;11258;52.516;13.318;2023-05-07T09:58:59;14.80;99.90
22185;DHT22;11258;52.516;13.318;2023-05-07T10:01:25;14.50;99.90
22185;DHT22;11258;52.516;13.318;2023-05-07T10:03:52;14.40;99.90
22185;DHT22;11258;52.516;13.318;2023-05-07T10:06:20;14.20;99.90
22185;DHT22;11258;52.516;13.318;2023-05-07T10:08:46;14.30;99.90
22185;DHT22;11258;52.516;13.318;2023-05-07T10:11:12;14.70;99.90
22185;DHT22;11258;52.516;13.318;2023-05-07T10:13:40;14.70;99.90
22185;DHT22;11258;52.516;13.318;2023-05-07T10:16:06;14.80;99.90
22185;DHT22;11258;52.516;13.318;2023-05-07T15:53:37;16.10;99.90
22185;DHT22;11258;52.516;13.318;2023-05-07T15:56:03;15.90;99.90
22185;DHT22;11258;52.516;13.318;2023-05-07T15:58:28;15.80;99.90
22185;DHT22;11258;52.516;13.318;2023-05-07T16:00:54;15.80;99.90
22185;DHT22;11258;52.516;13.318;2023-05-07T16:03:20;15.70;99.90
22185;DHT22;11258;52.516;13.318;2023-05-07T16:05:47;15.70;99.90
22185;DHT22;11258;52.516;13.318;2023-05-07T16:08:13;15.60;99.90
22185;DHT22;11258;52.516;13.318;2023-05-07T16:10:38;15.50;99.90
22185;DHT22;11258;52.516;13.318;2023-05-07T16:13:04;15.50;99.90
22185;DHT22;11258;52.516;13.318;2023-05-07T16:15:30;15.50;99.90
22185;DHT22;11258;52.516;13.318;2023-05-07T16:17:55;15.40;99.90
22185;DHT22;11258;52.516;13.318;2023-05-07T16:20:26;15.30;99.90
22185;DHT22;11258;52.516;13.318;2023-05-07T16:22:54;15.30;99.90
22185;DHT22;11258;52.516;13.318;2023-05-07T16:25:19;15.20;99.90
22185;DHT22;11258;52.516;13.318;2023-05-07T16:27:45;15.30;99.90
22185;DHT22;11258;52.516;13.318;2023-05-07T18:24:56;13.70;99.90
22185;DHT22;11258;52.516;13.318;2023-05-07T18:27:22;13.60;99.90
22185;DHT22;11258;52.516;13.318;2023-05-07T18:29:47;13.60;99.90
22185;DHT22;11258;52.516;13.318;2023-05-07T18:32:13;13.50;99.90
22185;DHT22;11258;52.516;13.318;2023-05-07T18:34:39;13.50;99.90
22185;DHT22;11258;52.516;13.318;2023-05-07T18:37:04;13.50;99.90
22185;DHT22;11258;52.516;13.318;2023-05-07T18:39:30;13.50;99.90
22185;DHT22;11258;52.516;13.318;2023-05-07T18:41:56;13.60;99.90
22185;DHT22;11258;52.516;13.318;2023-05-07T18:44:23;13.60;99.90
22185;DHT22;11258;52.516;13.318;2023-05-07T18:46:49;13.60;99.90
22185;DHT22;11258;52.516;13.318;2023-05-07T18:49:15;13.50;99.90
22185;DHT22;11258;52.516;13.318;2023-05-07T18:51:40;13.50;99.90
22185;DHT22;11258;52.516;13.318;2023-05-07T18:54:06;13.50;99.90
22185;DHT22;11258;52.516;13.318;2023-05-07T18:56:32;13.40;99.90
22185;DHT22;11258;52.516;13.318;2023-05-07T18:58:57;13.50;99.90
22185;DHT22;11258;52.516;13.318;2023-05-07T19:01:23;13.50;99.90
22185;DHT22;11258;52.516;13.318;2023-05-07T19:03:48;13.50;99.90
22185;DHT22;11258;52.516;13.318;2023-05-07T19:06:14;13.50;99.90
22185;DHT22;11258;52.516;13.318;2023-05-07T19:08:40;13.40;99.90
22185;DHT22;11258;52.516;13.318;2023-05-07T19:11:06;13.40;99.90
22185;DHT22;11258;52.516;13.318;2023-05-07T19:13:32;13.30;99.90
22185;DHT22;11258;52.516;13.318;2023-05-07T19:15:57;13.30;99.90
22185;DHT22;11258;52.516;13.318;2023-05-07T19:18:23;13.30;99.90
22185;DHT22;11258;52.516;13.318;2023-05-07T19:20:49;13.20;99.90
22185;DHT22;11258;52.516;13.318;2023-05-07T19:23:14;13.20;99.90
22185;DHT22;11258;52.516;13.318;2023-05-07T19:25:40;13.20;99.90
22185;DHT22;11258;52.516;13.318;2023-05-07T19:28:06;13.10;99.90
22185;DHT22;11258;52.516;13.318;2023-05-07T19:30:31;13.10;99.90
22185;DHT22;11258;52.516;13.318;2023-05-07T19:33:00;13.10;99.90
22185;DHT22;11258;52.516;13.318;2023-05-07T19:35:26;13.00;99.90
22185;DHT22;11258;52.516;13.318;2023-05-07T19:37:51;13.00;99.90
22185;DHT22;11258;52.516;13.318;2023-05-07T19:40:17;13.00;99.90
22185;DHT22;11258;52.516;13.318;2023-05-07T19:42:42;12.90;99.90
22185;DHT22;11258;52.516;13.318;2023-05-07T19:45:09;12.90;99.90
22185;DHT22;11258;52.516;13.318;2023-05-07T19:47:35;12.90;99.90
22185;DHT22;11258;52.516;13.318;2023-05-07T19:50:01;12.90;99.90
22185;DHT22;11258;52.516;13.318;2023-05-07T19:52:27;12.80;99.90
22185;DHT22;11258;52.516;13.318;2023-05-07T19:54:52;12.90;99.90
22185;DHT22;11258;52.516;13.318;2023-05-07T19:57:19;12.80;99.90
22185;DHT22;11258;52.516;13.318;2023-05-07T19:59:45;12.70;99.90
22185;DHT22;11258;52.516;13.318;2023-05-07T20:02:11;12.70;99.90
22185;DHT22;11258;52.516;13.318;2023-05-07T20:04:37;12.70;99.90
22185;DHT22;11258;52.516;13.318;2023-05-07T20:07:03;12.80;99.90
22185;DHT22;11258;52.516;13.318;2023-05-07T20:09:29;12.60;99.90
22185;DHT22;11258;52.516;13.318;2023-05-07T20:11:54;12.60;99.90
22185;DHT22;11258;52.516;13.318;2023-05-07T22:52:48;10.30;99.90
22185;DHT22;11258;52.516;13.318;2023-05-07T22:55:13;10.20;99.90
22185;DHT22;11258;52.516;13.318;2023-05-07T22:57:39;10.30;99.90
22185;DHT22;11258;52.516;13.318;2023-05-07T23:00:05;10.30;99.90
22185;DHT22;11258;52.516;13.318;2023-05-07T23:02:31;10.30;99.90
22185;DHT22;11258;52.516;13.318;2023-05-07T23:04:59;10.30;99.90
22185;DHT22;11258;52.516;13.318;2023-05-07T23:07:26;10.20;99.90
22185;DHT22;11258;52.516;13.318;2023-05-07T23:09:52;10.10;99.90
22185;DHT22;11258;52.516;13.318;2023-05-07T23:12:17;10.20;99.90
22185;DHT22;11258;52.516;13.318;2023-05-07T23:14:43;10.10;99.90
22185;DHT22;11258;52.516;13.318;2023-05-07T23:17:09;10.10;99.90
22185;DHT22;11258;52.516;13.318;2023-05-07T23:19:34;10.00;99.90
22185;DHT22;11258;52.516;13.318;2023-05-07T23:22:00;10.10;99.90
22185;DHT22;11258;52.516;13.318;2023-05-07T23:24:25;10.00;99.90
22185;DHT22;11258;52.516;13.318;2023-05-07T23:26:51;10.00;99.90
22185;DHT22;11258;52.516;13.318;2023-05-07T23:29:17;10.00;99.90
22185;DHT22;11258;52.516;13.318;2023-05-07T23:31:42;10.00;99.90
22185;DHT22;11258;52.516;13.318;2023-05-07T23:34:08;10.00;99.90
22185;DHT22;11258;52.516;13.318;2023-05-07T23:36:33;10.00;99.90
22185;DHT22;11258;52.516;13.318;2023-05-07T23:38:59;9.90;99.90
22185;DHT22;11258;52.516;13.318;2023-05-07T23:41:25;9.90;99.90
22185;DHT22;11258;52.516;13.318;2023-05-07T23:43:50;9.90;99.90
22185;DHT22;11258;52.516;13.318;2023-05-07T23:46:16;9.80;99.90
22185;DHT22;11258;52.516;13.318;2023-05-07T23:48:42;9.80;99.90
22185;DHT22;11258;52.516;13.318;2023-05-07T23:51:07;9.80;99.90
22185;DHT22;11258;52.516;13.318;2023-05-07T23:53:33;9.80;99.90
22185;DHT22;11258;52.516;13.318;2023-05-07T23:55:59;9.70;99.90
22185;DHT22;11258;52.516;13.318;2023-05-07T23:58:24;9.70;99.90
